createdAt,value
2023-03-11T00:00:25.532Z,9.62
2023-03-11T00:03:14.464Z,9.54
2023-03-11T00:05:43.816Z,9.55
2023-03-11T00:08:14.649Z,9.58
2023-03-11T00:10:43.909Z,9.53
2023-03-11T00:13:13.743Z,9.45
2023-03-11T00:15:41.350Z,9.37
2023-03-11T00:18:08.465Z,9.32
2023-03-11T00:20:38.374Z,9.34
2023-03-11T00:23:07.668Z,9.40
2023-03-11T00:25:36.949Z,9.41
2023-03-11T00:28:07.208Z,9.35
2023-03-11T00:30:34.399Z,9.42
2023-03-11T00:33:01.555Z,9.41
2023-03-11T00:35:31.264Z,9.32
2023-03-11T00:38:04.669Z,9.31
2023-03-11T00:40:33.334Z,9.38
2023-03-11T00:43:00.527Z,9.38
2023-03-11T00:45:28.884Z,9.47
2023-03-11T00:47:56.743Z,9.48
2023-03-11T00:50:26.805Z,9.50
2023-03-11T00:52:54.153Z,9.57
2023-03-11T00:55:32.354Z,9.65
2023-03-11T00:58:02.802Z,9.58
2023-03-11T01:00:30.582Z,9.59
2023-03-11T01:02:59.327Z,9.59
2023-03-11T01:05:29.169Z,9.58
2023-03-11T01:07:56.374Z,9.54
2023-03-11T01:10:23.471Z,9.54
2023-03-11T01:12:50.533Z,9.52
2023-03-11T01:15:35.038Z,9.47
2023-03-11T01:18:02.981Z,9.45
2023-03-11T01:20:29.895Z,9.41
2023-03-11T01:22:59.882Z,9.32
2023-03-11T01:25:26.921Z,9.36
2023-03-11T01:27:53.987Z,9.30
2023-03-11T01:30:23.223Z,9.23
2023-03-11T01:32:52.493Z,9.23
2023-03-11T01:35:24.432Z,9.14
2023-03-11T01:37:52.529Z,9.19
2023-03-11T01:40:21.614Z,9.13
2023-03-11T01:42:48.690Z,9.10
2023-03-11T01:45:44.683Z,9.07
2023-03-11T01:48:11.840Z,9.16
2023-03-11T01:50:43.545Z,9.02
2023-03-11T01:53:11.823Z,8.99
2023-03-11T01:55:38.963Z,8.96
2023-03-11T01:58:11.000Z,8.90
2023-03-11T02:00:38.792Z,8.87
2023-03-11T02:03:13.915Z,8.93
2023-03-11T02:05:41.670Z,8.90
2023-03-11T02:08:08.987Z,9.03
2023-03-11T02:10:38.705Z,9.06
2023-03-11T02:13:06.310Z,9.10
2023-03-11T02:15:33.158Z,9.07
2023-03-11T02:18:04.542Z,9.03
2023-03-11T02:21:03.661Z,9.13
2023-03-11T02:23:42.569Z,9.10
2023-03-11T02:26:41.581Z,9.16
2023-03-11T02:29:11.287Z,9.06
2023-03-11T02:31:42.888Z,9.13
2023-03-11T02:34:23.220Z,9.06
2023-03-11T02:36:50.056Z,9.07
2023-03-11T02:39:17.086Z,9.05
2023-03-11T02:41:47.246Z,9.11
2023-03-11T02:44:15.828Z,9.01
2023-03-11T02:46:43.061Z,9.00
2023-03-11T02:49:11.629Z,8.99
2023-03-11T02:51:38.400Z,8.98
2023-03-11T02:54:06.316Z,8.96
2023-03-11T02:56:33.205Z,8.95
2023-03-11T02:59:00.254Z,8.98
2023-03-11T03:01:27.204Z,8.88
2023-03-11T03:03:54.364Z,8.90
2023-03-11T03:06:21.250Z,8.87
2023-03-11T03:08:48.357Z,8.95
2023-03-11T03:11:15.293Z,8.87
2023-03-11T03:13:42.343Z,8.89
2023-03-11T03:16:09.215Z,8.88
2023-03-11T03:18:37.526Z,8.90
2023-03-11T03:21:05.111Z,8.97
2023-03-11T03:23:37.645Z,8.98
2023-03-11T03:26:05.370Z,8.99
2023-03-11T03:28:32.709Z,8.98
2023-03-11T03:31:07.664Z,8.97
2023-03-11T03:33:34.744Z,8.97
2023-03-11T03:36:05.695Z,9.04
2023-03-11T03:38:33.031Z,9.13
2023-03-11T03:40:59.838Z,9.14
2023-03-11T03:43:26.886Z,9.16
2023-03-11T03:45:59.266Z,9.16
2023-03-11T03:48:26.339Z,9.10
2023-03-11T03:50:53.207Z,9.01
2023-03-11T03:53:20.394Z,8.94
2023-03-11T03:55:47.187Z,8.87
2023-03-11T03:58:14.206Z,8.77
2023-03-11T04:00:41.003Z,8.70
2023-03-11T04:03:08.065Z,8.70
2023-03-11T04:05:35.014Z,8.59
2023-03-11T04:08:02.263Z,8.50
2023-03-11T04:10:29.138Z,8.44
2023-03-11T04:12:56.177Z,8.37
2023-03-11T04:15:22.962Z,8.34
2023-03-11T04:17:50.001Z,8.28
2023-03-11T04:20:16.906Z,8.29
2023-03-11T04:22:44.243Z,8.25
2023-03-11T04:28:20.325Z,8.07
2023-03-11T04:30:47.559Z,8.07
2023-03-11T04:33:14.354Z,8.04
2023-03-11T04:35:41.494Z,8.06
2023-03-11T04:38:08.380Z,8.06
2023-03-11T04:40:37.713Z,7.89
2023-03-11T04:43:04.872Z,7.85
2023-03-11T04:45:32.193Z,7.83
2023-03-11T04:47:58.957Z,7.76
2023-03-11T04:50:26.023Z,7.63
2023-03-11T04:52:52.789Z,7.51
2023-03-11T04:55:19.851Z,7.32
2023-03-11T04:57:46.634Z,7.29
2023-03-11T05:00:15.768Z,7.24
2023-03-11T05:02:42.995Z,7.23
2023-03-11T05:05:10.338Z,7.10
2023-03-11T05:07:37.285Z,7.08
2023-03-11T05:10:05.668Z,6.92
2023-03-11T05:12:32.812Z,6.92
2023-03-11T05:14:59.879Z,6.89
2023-03-11T05:17:26.701Z,6.82
2023-03-11T05:19:54.182Z,6.74
2023-03-11T05:22:21.209Z,6.75
2023-03-11T05:24:48.759Z,6.68
2023-03-11T05:27:19.957Z,6.71
2023-03-11T05:29:47.210Z,6.66
2023-03-11T05:32:14.207Z,6.64
2023-03-11T05:34:41.752Z,6.76
2023-03-11T05:37:08.889Z,6.62
2023-03-11T05:39:37.728Z,6.50
2023-03-11T05:42:05.731Z,6.48
2023-03-11T05:44:33.748Z,6.38
2023-03-11T05:47:01.179Z,6.24
2023-03-11T05:49:28.459Z,6.13
2023-03-11T05:51:58.356Z,6.26
2023-03-11T05:54:26.168Z,6.21
2023-03-11T05:56:53.028Z,6.38
2023-03-11T05:59:20.165Z,6.42
2023-03-11T06:01:47.480Z,6.34
2023-03-11T06:04:14.940Z,6.26
2023-03-11T06:06:42.045Z,6.18
2023-03-11T06:09:16.035Z,6.08
2023-03-11T06:11:42.862Z,5.95
2023-03-11T06:14:13.425Z,5.83
2023-03-11T06:16:41.231Z,5.78
2023-03-11T06:19:08.616Z,5.78
2023-03-11T06:21:35.537Z,5.81
2023-03-11T06:24:02.582Z,5.87
2023-03-11T06:26:29.535Z,5.74
2023-03-11T06:28:56.566Z,5.78
2023-03-11T06:31:28.189Z,5.83
2023-03-11T06:33:59.360Z,5.90
2023-03-11T06:36:26.862Z,5.95
2023-03-11T06:38:54.925Z,5.92
2023-03-11T06:41:21.805Z,5.85
2023-03-11T06:43:49.221Z,5.70
2023-03-11T06:46:19.138Z,5.80
2023-03-11T06:48:46.941Z,5.64
2023-03-11T06:51:14.157Z,5.59
2023-03-11T06:53:41.412Z,5.71
2023-03-11T06:56:11.677Z,5.80
2023-03-11T06:58:40.615Z,5.76
2023-03-11T07:01:13.265Z,5.65
2023-03-11T07:03:41.063Z,5.88
2023-03-11T07:06:13.226Z,5.59
2023-03-11T07:08:40.354Z,5.77
2023-03-11T07:11:10.286Z,5.66
2023-03-11T07:13:37.380Z,5.72
2023-03-11T07:16:07.248Z,5.50
2023-03-11T07:18:35.704Z,5.44
2023-03-11T07:21:03.538Z,5.48
2023-03-11T07:23:30.583Z,5.39
2023-03-11T07:25:57.370Z,5.40
2023-03-11T07:28:29.002Z,5.44
2023-03-11T07:30:56.425Z,5.35
2023-03-11T07:33:24.562Z,5.25
2023-03-11T07:35:52.289Z,5.16
2023-03-11T07:38:19.901Z,5.21
2023-03-11T07:40:47.066Z,5.16
2023-03-11T07:43:15.086Z,5.33
2023-03-11T07:45:42.068Z,5.57
2023-03-11T07:48:09.144Z,5.63
2023-03-11T07:50:36.041Z,5.83
2023-03-11T07:53:03.202Z,5.83
2023-03-11T07:55:30.022Z,5.88
2023-03-11T07:57:57.320Z,5.81
2023-03-11T08:00:24.185Z,5.95
2023-03-11T08:02:52.161Z,5.77
2023-03-11T08:05:20.894Z,5.78
2023-03-11T08:07:48.008Z,5.88
2023-03-11T08:10:14.888Z,5.86
2023-03-11T08:12:41.984Z,5.84
2023-03-11T08:15:09.519Z,5.90
2023-03-11T08:17:36.600Z,6.01
2023-03-11T08:20:05.087Z,5.96
2023-03-11T08:22:32.199Z,6.10
2023-03-11T08:24:59.000Z,6.09
2023-03-11T08:27:28.641Z,6.28
2023-03-11T08:29:55.595Z,6.40
2023-03-11T08:32:23.187Z,6.25
2023-03-11T08:34:50.087Z,6.46
2023-03-11T08:37:17.213Z,6.49
2023-03-11T08:39:43.962Z,6.82
2023-03-11T08:42:11.589Z,6.56
2023-03-11T08:44:38.942Z,6.81
2023-03-11T08:47:06.309Z,6.70
2023-03-11T08:49:33.285Z,6.55
2023-03-11T08:52:01.993Z,6.89
2023-03-11T08:54:30.504Z,6.75
2023-03-11T08:56:58.849Z,6.92
2023-03-11T08:59:25.671Z,6.66
2023-03-11T09:01:52.697Z,6.58
2023-03-11T09:04:19.429Z,6.86
2023-03-11T09:06:48.862Z,7.06
2023-03-11T09:09:21.770Z,6.93
2023-03-11T09:11:49.328Z,6.65
2023-03-11T09:14:16.123Z,6.64
2023-03-11T09:16:43.170Z,6.47
2023-03-11T09:19:09.942Z,6.64
2023-03-11T09:21:38.052Z,6.60
2023-03-11T09:24:06.050Z,6.47
2023-03-11T09:26:33.793Z,6.40
2023-03-11T09:29:00.717Z,6.30
2023-03-11T09:31:27.939Z,6.20
2023-03-11T09:33:56.375Z,6.04
2023-03-11T09:36:23.527Z,5.99
2023-03-11T09:38:50.437Z,5.89
2023-03-11T09:41:17.567Z,5.99
2023-03-11T09:44:05.929Z,5.93
2023-03-11T09:46:51.769Z,6.00
2023-03-11T09:49:55.136Z,5.97
2023-03-11T09:52:35.335Z,5.97
2023-03-11T09:55:05.346Z,5.93
2023-03-11T09:57:34.430Z,5.89
2023-03-11T10:00:04.249Z,6.01
2023-03-11T10:02:32.717Z,5.93
2023-03-11T10:05:08.535Z,5.83
2023-03-11T10:07:43.706Z,5.75
2023-03-11T10:10:15.216Z,5.79
2023-03-11T10:13:00.501Z,5.61
2023-03-11T10:15:33.130Z,5.66
2023-03-11T10:18:19.098Z,5.56
2023-03-11T10:21:03.127Z,5.46
2023-03-11T10:24:01.207Z,5.53
2023-03-11T10:26:40.741Z,5.42
2023-03-11T10:29:23.756Z,5.39
2023-03-11T10:32:07.767Z,5.49
2023-03-11T10:34:43.813Z,5.54
2023-03-11T10:37:19.585Z,5.60
2023-03-11T10:39:50.196Z,5.53
2023-03-11T10:42:24.833Z,5.56
2023-03-11T10:44:52.702Z,5.73
2023-03-11T10:47:23.124Z,5.90
2023-03-11T10:49:52.449Z,5.91
2023-03-11T10:52:19.616Z,5.88
2023-03-11T10:54:58.939Z,6.07
2023-03-11T10:57:34.377Z,5.97
2023-03-11T11:00:17.055Z,5.98
2023-03-11T11:02:53.742Z,6.04
2023-03-11T11:05:27.219Z,5.96
2023-03-11T11:08:05.987Z,6.09
2023-03-11T11:10:34.624Z,5.93
2023-03-11T11:13:02.034Z,6.00
2023-03-11T11:15:41.460Z,6.13
2023-03-11T11:18:29.485Z,6.31
2023-03-11T11:21:03.403Z,6.20
2023-03-11T11:23:34.911Z,5.99
2023-03-11T11:26:06.220Z,5.88
2023-03-11T11:28:33.896Z,5.67
2023-03-11T11:31:05.463Z,5.69
2023-03-11T11:33:51.773Z,5.83
2023-03-11T11:36:24.248Z,5.85
2023-03-11T11:38:54.691Z,5.94
2023-03-11T11:41:24.952Z,5.94
2023-03-11T11:43:57.821Z,6.13
2023-03-11T11:46:34.825Z,6.06
2023-03-11T11:49:44.965Z,6.79
2023-03-11T11:52:19.458Z,7.18
2023-03-11T11:55:01.793Z,6.80
2023-03-11T11:57:29.441Z,6.69
2023-03-11T11:59:57.712Z,6.60
2023-03-11T12:02:59.265Z,6.48
2023-03-11T12:05:29.072Z,6.50
2023-03-11T12:08:02.453Z,6.28
2023-03-11T12:10:34.190Z,6.11
2023-03-11T12:13:22.713Z,6.68
2023-03-11T12:16:23.415Z,6.43
2023-03-11T12:19:00.352Z,8.00
2023-03-11T12:21:48.417Z,7.80
2023-03-11T12:24:34.037Z,7.48
2023-03-11T12:27:07.393Z,8.24
2023-03-11T12:29:40.641Z,9.61
2023-03-11T12:32:07.851Z,9.29
2023-03-11T12:34:37.895Z,8.95
2023-03-11T12:37:14.683Z,10.64
2023-03-11T12:39:41.735Z,10.88
2023-03-11T12:42:11.292Z,11.31
2023-03-11T12:44:39.651Z,12.47
2023-03-11T12:47:12.469Z,11.47
2023-03-11T12:49:47.144Z,11.71
2023-03-11T12:52:13.845Z,10.54
2023-03-11T12:54:42.601Z,9.82
2023-03-11T12:57:18.753Z,10.39
2023-03-11T13:00:09.699Z,8.24
2023-03-11T13:02:55.718Z,7.90
2023-03-11T13:05:31.959Z,7.26
2023-03-11T13:08:13.756Z,8.39
2023-03-11T13:10:42.302Z,8.25
2023-03-11T13:13:33.722Z,7.85
2023-03-11T13:16:12.922Z,7.76
2023-03-11T13:18:41.937Z,7.30
2023-03-11T13:21:27.017Z,6.91
2023-03-11T13:24:21.404Z,7.27
2023-03-11T13:27:04.429Z,6.77
2023-03-11T13:30:05.609Z,6.84
2023-03-11T13:32:54.021Z,6.70
2023-03-11T13:35:39.584Z,6.44
2023-03-11T13:38:34.636Z,6.36
2023-03-11T13:41:03.341Z,6.30
2023-03-11T13:43:30.599Z,6.16
2023-03-11T13:46:05.429Z,6.15
2023-03-11T13:48:40.657Z,6.25
2023-03-11T13:51:19.282Z,6.47
2023-03-11T13:53:53.491Z,6.59
2023-03-11T13:56:28.070Z,6.80
2023-03-11T13:58:55.157Z,6.39
2023-03-11T14:01:22.077Z,6.29
2023-03-11T14:03:49.299Z,6.41
2023-03-11T14:06:19.804Z,6.20
2023-03-11T14:08:55.307Z,6.41
2023-03-11T14:11:29.488Z,6.45
2023-03-11T14:13:56.669Z,6.40
2023-03-11T14:16:36.240Z,6.31
2023-03-11T14:19:17.423Z,6.09
2023-03-11T14:21:51.768Z,6.19
2023-03-11T14:24:39.747Z,6.08
2023-03-11T14:27:09.889Z,6.00
2023-03-11T14:29:39.845Z,5.95
2023-03-11T14:32:36.163Z,5.83
2023-03-11T14:35:19.471Z,5.92
2023-03-11T14:37:46.306Z,6.11
2023-03-11T14:40:31.052Z,6.06
2023-03-11T14:43:03.781Z,6.15
2023-03-11T14:45:36.448Z,6.17
2023-03-11T14:48:05.948Z,6.32
2023-03-11T14:50:38.136Z,6.50
2023-03-11T14:53:30.336Z,6.50
2023-03-11T14:56:06.879Z,6.49
2023-03-11T14:58:37.169Z,6.39
2023-03-11T15:01:19.408Z,6.38
2023-03-11T15:03:55.852Z,6.57
2023-03-11T15:06:26.601Z,6.22
2023-03-11T15:08:59.472Z,6.47
2023-03-11T15:11:28.500Z,6.70
2023-03-11T15:14:15.031Z,8.29
2023-03-11T15:16:42.120Z,9.04
2023-03-11T15:19:23.037Z,10.22
2023-03-11T15:21:54.527Z,11.46
2023-03-11T15:24:27.858Z,10.26
2023-03-11T15:27:07.466Z,10.72
2023-03-11T15:29:35.954Z,10.66
2023-03-11T15:32:27.103Z,8.20
2023-03-11T15:35:16.580Z,7.96
2023-03-11T15:37:44.813Z,8.37
2023-03-11T15:40:35.269Z,8.30
2023-03-11T15:43:20.078Z,7.09
2023-03-11T15:45:48.156Z,6.86
2023-03-11T15:48:15.220Z,6.33
2023-03-11T15:50:56.358Z,6.03
2023-03-11T15:53:26.002Z,5.91
2023-03-11T15:55:54.517Z,5.85
2023-03-11T15:58:21.857Z,5.49
2023-03-11T16:00:51.677Z,5.61
2023-03-11T16:03:19.245Z,5.54
2023-03-11T16:05:46.796Z,5.57
2023-03-11T16:08:14.329Z,5.71
2023-03-11T16:10:41.605Z,5.66
2023-03-11T16:13:15.422Z,5.52
2023-03-11T16:15:43.890Z,5.60
2023-03-11T16:18:11.071Z,5.44
2023-03-11T16:20:56.341Z,5.46
2023-03-11T16:23:26.337Z,5.26
2023-03-11T16:25:59.994Z,5.22
2023-03-11T16:28:27.878Z,5.17
2023-03-11T16:30:55.957Z,5.14
2023-03-11T16:33:22.993Z,5.20
2023-03-11T16:35:49.867Z,5.21
2023-03-11T16:38:20.611Z,5.14
2023-03-11T16:40:56.949Z,5.11
2023-03-11T16:43:24.506Z,5.04
2023-03-11T16:45:51.385Z,4.99
2023-03-11T16:48:18.462Z,4.97
2023-03-11T16:50:45.289Z,4.95
2023-03-11T16:53:14.073Z,4.93
2023-03-11T16:55:40.820Z,5.00
2023-03-11T16:58:08.649Z,5.01
2023-03-11T17:00:37.315Z,5.00
2023-03-11T17:03:04.864Z,4.92
2023-03-11T17:05:31.653Z,4.93
2023-03-11T17:08:04.236Z,4.87
2023-03-11T17:10:40.566Z,4.78
2023-03-11T17:13:08.394Z,4.77
2023-03-11T17:15:36.026Z,4.68
2023-03-11T17:18:03.147Z,4.77
2023-03-11T17:20:29.972Z,4.53
2023-03-11T17:22:57.134Z,4.53
2023-03-11T17:25:23.921Z,4.50
2023-03-11T17:27:51.026Z,4.38
2023-03-11T17:30:30.494Z,4.26
2023-03-11T17:33:01.358Z,4.26
2023-03-11T17:35:28.191Z,4.19
2023-03-11T17:37:55.338Z,4.15
2023-03-11T17:40:22.128Z,4.16
2023-03-11T17:42:49.201Z,4.11
2023-03-11T17:45:16.046Z,4.12
2023-03-11T17:47:44.092Z,4.07
2023-03-11T17:50:11.810Z,3.97
2023-03-11T17:52:39.085Z,4.07
2023-03-11T17:55:06.554Z,4.17
2023-03-11T17:57:44.497Z,4.15
2023-03-11T18:00:14.690Z,4.20
2023-03-11T18:02:42.289Z,4.24
2023-03-11T18:05:09.478Z,4.08
2023-03-11T18:07:40.782Z,3.99
2023-03-11T18:10:08.217Z,4.01
2023-03-11T18:12:35.363Z,3.89
2023-03-11T18:15:08.177Z,3.89
2023-03-11T18:17:35.750Z,3.83
2023-03-11T18:20:02.648Z,3.81
2023-03-11T18:22:29.746Z,3.85
2023-03-11T18:24:57.668Z,3.80
2023-03-11T18:27:24.836Z,3.85
2023-03-11T18:29:51.741Z,3.77
2023-03-11T18:32:20.724Z,3.77
2023-03-11T18:34:51.297Z,3.74
2023-03-11T18:37:18.504Z,3.75
2023-03-11T18:39:45.338Z,3.74
2023-03-11T18:42:14.028Z,3.74
2023-03-11T18:44:41.248Z,3.72
2023-03-11T18:47:08.290Z,3.67
2023-03-11T18:49:35.060Z,3.63
2023-03-11T18:52:02.127Z,3.53
2023-03-11T18:54:29.023Z,3.67
2023-03-11T18:56:58.894Z,3.54
2023-03-11T18:59:27.711Z,3.60
2023-03-11T19:01:55.125Z,3.57
2023-03-11T19:04:22.534Z,3.57
2023-03-11T19:06:50.258Z,3.60
2023-03-11T19:09:18.453Z,3.52
2023-03-11T19:11:45.827Z,3.50
2023-03-11T19:14:12.596Z,3.53
2023-03-11T19:16:39.725Z,3.57
2023-03-11T19:19:06.548Z,3.46
2023-03-11T19:21:33.678Z,3.38
2023-03-11T19:24:00.524Z,3.51
2023-03-11T19:26:44.791Z,3.46
2023-03-11T19:29:14.229Z,3.63
2023-03-11T19:31:43.350Z,3.54
2023-03-11T19:34:10.182Z,3.58
2023-03-11T19:36:37.277Z,3.45
2023-03-11T19:39:04.054Z,3.55
2023-03-11T19:41:31.118Z,3.41
2023-03-11T19:44:01.458Z,3.35
2023-03-11T19:46:29.750Z,3.26
2023-03-11T19:48:56.873Z,3.19
2023-03-11T19:51:26.654Z,3.14
2023-03-11T19:53:56.237Z,3.16
2023-03-11T19:56:23.437Z,3.09
2023-03-11T19:58:50.187Z,3.08
2023-03-11T20:01:18.581Z,2.94
2023-03-11T20:03:45.943Z,2.98
2023-03-11T20:06:16.543Z,2.96
2023-03-11T20:08:43.985Z,2.94
2023-03-11T20:11:11.072Z,2.91
2023-03-11T20:13:38.310Z,2.86
2023-03-11T20:16:11.955Z,2.87
2023-03-11T20:18:38.893Z,2.79
2023-03-11T20:21:08.057Z,2.77
2023-03-11T20:23:35.792Z,2.81
2023-03-11T20:26:15.278Z,2.87
2023-03-11T20:28:42.635Z,2.81
2023-03-11T20:31:20.159Z,2.69
2023-03-11T20:33:51.132Z,2.69
2023-03-11T20:36:24.763Z,2.74
2023-03-11T20:38:52.990Z,2.70
2023-03-11T20:41:23.214Z,2.67
2023-03-11T20:43:54.273Z,2.66
2023-03-11T20:46:21.702Z,2.66
2023-03-11T20:48:48.536Z,2.61
2023-03-11T20:51:20.359Z,2.54
2023-03-11T20:53:49.063Z,2.53
2023-03-11T20:56:19.068Z,2.51
2023-03-11T20:58:48.733Z,2.45
2023-03-11T21:01:18.973Z,2.42
2023-03-11T21:03:46.087Z,2.37
2023-03-11T21:06:25.285Z,2.34
2023-03-11T21:08:55.093Z,2.29
2023-03-11T21:11:23.075Z,2.34
2023-03-11T21:13:50.619Z,2.35
2023-03-11T21:16:18.325Z,2.29
2023-03-11T21:18:49.202Z,2.28
2023-03-11T21:21:18.293Z,2.19
2023-03-11T21:23:46.171Z,2.37
2023-03-11T21:26:15.679Z,2.37
2023-03-11T21:28:46.502Z,2.29
2023-03-11T21:31:22.280Z,2.26
2023-03-11T21:33:53.415Z,2.23
2023-03-11T21:36:20.961Z,2.22
2023-03-11T21:38:49.298Z,2.24
2023-03-11T21:41:19.029Z,2.17
2023-03-11T21:43:47.219Z,2.17
2023-03-11T21:46:17.393Z,2.16
2023-03-11T21:48:45.205Z,2.09
2023-03-11T21:51:13.414Z,2.07
2023-03-11T21:53:40.321Z,2.05
2023-03-11T21:56:10.044Z,2.04
2023-03-11T21:58:37.108Z,2.05
2023-03-11T22:01:04.383Z,2.02
2023-03-11T22:03:35.386Z,2.02
2023-03-11T22:06:06.283Z,2.13
2023-03-11T22:08:33.292Z,2.07
2023-03-11T22:11:00.837Z,2.15
2023-03-11T22:13:27.925Z,2.04
2023-03-11T22:15:55.139Z,2.10
2023-03-11T22:18:22.014Z,2.15
2023-03-11T22:20:49.261Z,2.14
2023-03-11T22:23:16.051Z,2.12
2023-03-11T22:25:43.194Z,2.08
2023-03-11T22:28:12.950Z,2.06
2023-03-11T22:30:40.234Z,2.00
2023-03-11T22:33:07.640Z,2.04
2023-03-11T22:35:34.881Z,2.01
2023-03-11T22:38:01.790Z,2.02
2023-03-11T22:40:28.970Z,2.02
2023-03-11T22:42:55.847Z,1.96
2023-03-11T22:45:23.014Z,1.96
2023-03-11T22:47:50.653Z,1.93
2023-03-11T22:50:18.123Z,1.87
2023-03-11T22:52:45.514Z,1.91
2023-03-11T22:55:12.586Z,1.88
2023-03-11T22:57:39.377Z,1.94
2023-03-11T23:00:17.180Z,1.89
2023-03-11T23:02:45.691Z,1.88
2023-03-11T23:05:14.218Z,1.80
2023-03-11T23:07:41.797Z,1.82
2023-03-11T23:10:10.722Z,1.91
2023-03-11T23:12:37.493Z,1.82
2023-03-11T23:15:07.372Z,1.82
2023-03-11T23:17:34.290Z,1.84
2023-03-11T23:20:02.120Z,1.85
2023-03-11T23:22:35.845Z,1.82
2023-03-11T23:25:04.908Z,1.75
2023-03-11T23:27:31.867Z,1.68
2023-03-11T23:29:59.021Z,1.80
2023-03-11T23:32:25.969Z,1.78
2023-03-11T23:34:53.015Z,1.76
2023-03-11T23:37:19.776Z,1.63
2023-03-11T23:39:46.852Z,1.54
2023-03-11T23:42:25.135Z,1.48
2023-03-11T23:44:53.188Z,1.43
2023-03-11T23:47:20.012Z,1.46
2023-03-11T23:49:47.094Z,1.49
2023-03-11T23:52:13.908Z,1.42
2023-03-11T23:54:40.996Z,1.42
2023-03-11T23:57:07.880Z,1.44
2023-03-11T23:59:34.953Z,1.42
